[ EDKA 171420Z AUTO 25009KT 220V290 9999 ///////// 19/13 Q1013 ]
Windrichtung (graph.)
Inst: 246° 8.6 kt
2min: 243° 9.1 kt
10min: 242° 9.4 kt
Extrem: 216° – 262° 13.6 kt – 6 kt
Crosswind: 1.1 kt
Luftdruck (graph.)
QNH: 1013 hPa Temp: 18.8 °C
QNH: 29.91 inHg DewP: 13.5 °C
QFE: 990 hPa Hum: 71.5 %
QFE: 29.25 inHg